Aliquippa, Pennsylvania
Current Conditions -  °F | °C
As of 3:51 PM on Sunday 21 Dec 2014 (Local Time) from KPIT Reporting Station
Broken Clouds Broken Clouds  
Wind Chill:   Ceiling: 15000
Heat Index:   Visibility: 10mi
Dew Point: -6°   Wind: 3mph
Humidity: 64%   Direction: 10°N
Pressure: 30.23"   Gusts: NA
Location:  40.62°N, 80.24°W
Report Text: KPIT 212051Z 01003KT 10SM SCT028 BKN150 01/M06 A3023 RMK AO2 SLP257 T00061056 56012
Loading
Personal Weather Stations






























Interactive Weather Map New forecast layout! Learn more

10-Day Weather Forecast

Advertisements
Track Severe Weather on mobile